Time;durP1;ratioP1;P1;durP2;ratioP2;P2;SDS_P1;SDS_P2;PMS_P1;PMS_P2;Temp;Humidity;BMP_temperature;BMP_pressure;BME280_temperature;BME280_humidity;BME280_pressure;Samples;Min_cycle;Max_cycle;Signal;HPM_P1;HPM_P2
2024/03/17 00:02:18;;;;;;;10.40;1.13;;;;;;;;;;5015285;28;20444;-83
2024/03/17 00:04:44;;;;;;;9.70;1.93;;;;;;;;;;5015271;28;20471;-83
2024/03/17 00:07:10;;;;;;;12.17;1.70;;;;;;;;;;5015411;28;20515;-83
2024/03/17 00:09:36;;;;;;;15.43;2.20;;;;;;;;;;5015344;28;20424;-83
2024/03/17 00:12:02;;;;;;;18.67;3.83;;;;;;;;;;5015344;28;20474;-84
2024/03/17 00:14:28;;;;;;;11.43;1.40;;;;;;;;;;5014069;28;20417;-84
2024/03/17 00:16:54;;;;;;;9.23;1.43;;;;;;;;;;5015295;28;20418;-82
2024/03/17 00:19:22;;;;;;;13.03;1.70;;;;;;;;;;5014910;28;20738;-81
2024/03/17 00:21:48;;;;;;;12.20;1.53;;;;;;;;;;5015094;28;20416;-80
2024/03/17 00:24:13;;;;;;;10.00;2.47;;;;;;;;;;5015177;28;20763;-83
2024/03/17 00:26:40;;;;;;;10.90;1.67;;;;;;;;;;5015170;28;20411;-82
2024/03/17 00:29:06;;;;;;;8.53;1.40;;;;;;;;;;5013873;28;20422;-82
2024/03/17 00:31:32;;;;;;;7.70;1.90;;;;;;;;;;5014908;28;20474;-81
2024/03/17 00:33:58;;;;;;;16.37;2.97;;;;;;;;;;5014576;28;20482;-82
2024/03/17 00:36:24;;;;;;;9.37;1.57;;;;;;;;;;5014617;28;20484;-81
2024/03/17 00:38:51;;;;;;;11.23;3.30;;;;;;;;;;5013538;28;20414;-83
2024/03/17 00:41:19;;;;;;;18.73;2.27;;;;;;;;;;5013530;28;20801;-81
2024/03/17 00:43:45;;;;;;;10.37;1.80;;;;;;;;;;5013569;28;20429;-82
2024/03/17 00:46:11;;;;;;;10.87;1.80;;;;;;;;;;5014767;28;20415;-81
2024/03/17 00:48:37;;;;;;;9.50;2.60;;;;;;;;;;5014353;28;20513;-82
2024/03/17 00:51:04;;;;;;;18.73;2.60;;;;;;;;;;5014657;28;20544;-82
2024/03/17 00:53:30;;;;;;;14.13;1.40;;;;;;;;;;5014331;28;20446;-81
2024/03/17 00:56:00;;;;;;;8.97;0.63;;;;;;;;;;5014413;28;20463;-83
2024/03/17 00:58:26;;;;;;;13.77;2.20;;;;;;;;;;5014633;28;20486;-82
2024/03/17 01:00:52;;;;;;;12.83;2.53;;;;;;;;;;5014552;28;20503;-82
2024/03/17 01:03:18;;;;;;;9.47;2.00;;;;;;;;;;5004819;28;20520;-80
2024/03/17 01:05:47;;;;;;;12.23;2.27;;;;;;;;;;4994674;28;20421;-81
2024/03/17 01:08:13;;;;;;;8.67;2.00;;;;;;;;;;4993471;28;20451;-81
2024/03/17 01:10:39;;;;;;;10.17;1.47;;;;;;;;;;4993460;28;20470;-81
2024/03/17 01:13:09;;;;;;;10.20;1.57;;;;;;;;;;5011795;28;20426;-82
2024/03/17 01:15:36;;;;;;;11.43;2.00;;;;;;;;;;5013888;28;20432;-82
2024/03/17 01:18:04;;;;;;;7.43;1.30;;;;;;;;;;5012347;28;20529;-83
2024/03/17 01:20:30;;;;;;;9.77;1.50;;;;;;;;;;5014184;28;20423;-80
2024/03/17 01:22:56;;;;;;;6.70;1.43;;;;;;;;;;5012796;28;20454;-81
2024/03/17 01:25:22;;;;;;;7.13;1.07;;;;;;;;;;5013978;28;20950;-80
2024/03/17 01:27:47;;;;;;;13.10;2.03;;;;;;;;;;5013936;28;20427;-80
2024/03/17 01:30:14;;;;;;;11.23;2.63;;;;;;;;;;5012557;28;20418;-81
2024/03/17 01:32:40;;;;;;;7.40;1.80;;;;;;;;;;5013539;28;20509;-81
2024/03/17 01:35:06;;;;;;;11.50;1.13;;;;;;;;;;5012568;28;20455;-80
2024/03/17 01:37:32;;;;;;;8.87;1.50;;;;;;;;;;5013801;28;20512;-81
2024/03/17 01:40:01;;;;;;;10.80;1.60;;;;;;;;;;5013870;28;20415;-81
2024/03/17 01:42:29;;;;;;;14.23;2.30;;;;;;;;;;5013735;28;20905;-81
2024/03/17 01:44:55;;;;;;;8.27;1.73;;;;;;;;;;5013621;28;20415;-82
2024/03/17 01:47:20;;;;;;;14.93;2.13;;;;;;;;;;5013280;28;20448;-81
2024/03/17 01:49:47;;;;;;;12.70;2.80;;;;;;;;;;5013745;28;20411;-82
2024/03/17 01:52:14;;;;;;;10.30;2.07;;;;;;;;;;5013540;28;20479;-84
2024/03/17 01:54:41;;;;;;;11.63;1.70;;;;;;;;;;5012291;28;20418;-81
2024/03/17 01:57:07;;;;;;;9.17;1.93;;;;;;;;;;5012343;28;20837;-81
2024/03/17 01:59:33;;;;;;;12.60;2.70;;;;;;;;;;5013599;28;20411;-81
2024/03/17 02:02:00;;;;;;;8.73;1.80;;;;;;;;;;5013356;28;20772;-82
2024/03/17 02:04:26;;;;;;;11.47;1.93;;;;;;;;;;5013513;28;21001;-82
2024/03/17 02:06:52;;;;;;;9.10;2.30;;;;;;;;;;5011861;28;20523;-82
2024/03/17 02:09:18;;;;;;;12.40;2.30;;;;;;;;;;5013492;28;20414;-81
2024/03/17 02:11:44;;;;;;;7.87;1.80;;;;;;;;;;5004605;28;20474;-80
2024/03/17 02:14:13;;;;;;;13.17;1.60;;;;;;;;;;4992579;28;20503;-80
2024/03/17 02:16:39;;;;;;;13.67;2.30;;;;;;;;;;4996446;28;20434;-81
2024/03/17 02:19:04;;;;;;;20.50;3.33;;;;;;;;;;5011803;28;20778;-82
2024/03/17 02:21:31;;;;;;;10.40;1.53;;;;;;;;;;5012040;28;20430;-81
2024/03/17 02:23:57;;;;;;;8.17;2.03;;;;;;;;;;5013392;28;20411;-81
2024/03/17 02:26:25;;;;;;;9.70;1.90;;;;;;;;;;5013315;28;20428;-81
2024/03/17 02:28:51;;;;;;;15.07;2.50;;;;;;;;;;5012081;28;20876;-85
2024/03/17 02:31:17;;;;;;;4.63;1.97;;;;;;;;;;5013234;28;21181;-83
2024/03/17 02:33:43;;;;;;;17.63;2.97;;;;;;;;;;5012839;28;20409;-85
2024/03/17 02:36:11;;;;;;;15.53;2.30;;;;;;;;;;5012952;28;20410;-84
2024/03/17 02:41:22;;;;;;;9.00;1.93;;;;;;;;;;5013280;28;20926;-82
2024/03/17 02:43:48;;;;;;;10.40;2.00;;;;;;;;;;5012992;28;20509;-80
2024/03/17 02:46:15;;;;;;;18.90;2.93;;;;;;;;;;5013027;28;20421;-85
2024/03/17 02:48:50;;;;;;;17.83;2.53;;;;;;;;;;5012818;28;20511;-85
2024/03/17 02:51:17;;;;;;;13.87;2.70;;;;;;;;;;5012526;28;20465;-83
2024/03/17 02:53:47;;;;;;;8.30;2.17;;;;;;;;;;5012944;28;20410;-84
2024/03/17 02:56:16;;;;;;;10.90;2.33;;;;;;;;;;5012753;28;20461;-81
2024/03/17 02:58:42;;;;;;;16.70;5.73;;;;;;;;;;5012994;28;20446;-85
2024/03/17 03:01:09;;;;;;;12.93;2.07;;;;;;;;;;5012873;28;20465;-84
2024/03/17 03:03:35;;;;;;;16.40;4.50;;;;;;;;;;5011109;28;20806;-81
2024/03/17 03:06:03;;;;;;;13.10;2.50;;;;;;;;;;5012909;28;20409;-85
2024/03/17 03:08:29;;;;;;;10.17;2.60;;;;;;;;;;5012777;28;20406;-85
2024/03/17 03:10:55;;;;;;;14.20;2.50;;;;;;;;;;5012488;28;20488;-84
2024/03/17 03:13:21;;;;;;;13.40;2.50;;;;;;;;;;5012698;28;20402;-83
2024/03/17 03:15:48;;;;;;;11.93;3.60;;;;;;;;;;5012722;28;20427;-84
2024/03/17 03:18:15;;;;;;;10.90;2.53;;;;;;;;;;5014298;28;20414;-83
2024/03/17 03:20:41;;;;;;;11.07;2.93;;;;;;;;;;5015439;28;20513;-85
2024/03/17 03:23:07;;;;;;;15.37;4.07;;;;;;;;;;5016568;28;20982;-84
2024/03/17 03:25:32;;;;;;;8.20;2.63;;;;;;;;;;5015244;28;20425;-84
2024/03/17 03:27:59;;;;;;;10.30;3.50;;;;;;;;;;5016563;28;20414;-82
2024/03/17 03:30:25;;;;;;;12.90;2.27;;;;;;;;;;5016394;28;20515;-81
2024/03/17 03:32:51;;;;;;;13.27;2.87;;;;;;;;;;5016058;28;20416;-81
2024/03/17 03:35:17;;;;;;;9.17;2.70;;;;;;;;;;5016360;28;20412;-82
2024/03/17 03:37:43;;;;;;;7.13;2.83;;;;;;;;;;5016376;28;20948;-80
2024/03/17 03:40:16;;;;;;;16.20;2.70;;;;;;;;;;5016279;28;20441;-83
2024/03/17 03:42:42;;;;;;;9.23;3.20;;;;;;;;;;5014983;28;20484;-81
2024/03/17 03:45:09;;;;;;;13.70;3.10;;;;;;;;;;5014943;28;20452;-82
2024/03/17 03:47:35;;;;;;;8.63;4.37;;;;;;;;;;5015784;28;20428;-81
2024/03/17 03:50:01;;;;;;;11.00;2.57;;;;;;;;;;5016142;28;20895;-82
2024/03/17 03:52:27;;;;;;;13.67;3.47;;;;;;;;;;5015747;28;20473;-81
2024/03/17 03:54:53;;;;;;;15.13;3.10;;;;;;;;;;5016081;28;20763;-82
2024/03/17 03:57:18;;;;;;;10.40;2.60;;;;;;;;;;5015755;28;20463;-82
2024/03/17 03:59:44;;;;;;;15.87;2.60;;;;;;;;;;5016016;28;20417;-80
2024/03/17 04:02:10;;;;;;;7.13;3.33;;;;;;;;;;5015568;28;20414;-83
2024/03/17 04:04:36;;;;;;;10.00;1.93;;;;;;;;;;5015924;28;20797;-80
2024/03/17 04:07:03;;;;;;;12.67;3.50;;;;;;;;;;5015895;28;20903;-81
2024/03/17 04:09:29;;;;;;;6.00;1.50;;;;;;;;;;5014467;28;20422;-85
2024/03/17 04:11:55;;;;;;;7.07;3.03;;;;;;;;;;5015651;28;20902;-82
2024/03/17 04:14:21;;;;;;;7.67;2.00;;;;;;;;;;5015728;28;20406;-84
2024/03/17 04:16:47;;;;;;;9.97;2.00;;;;;;;;;;5014130;28;20982;-79
2024/03/17 04:19:15;;;;;;;11.97;3.50;;;;;;;;;;5015569;28;20560;-80
2024/03/17 04:21:41;;;;;;;7.33;2.17;;;;;;;;;;5015525;28;20982;-83
2024/03/17 04:24:07;;;;;;;10.33;2.60;;;;;;;;;;5015397;28;20422;-82
2024/03/17 04:26:33;;;;;;;7.30;2.40;;;;;;;;;;5015349;28;20426;-81
2024/03/17 04:29:00;;;;;;;5.53;2.00;;;;;;;;;;5014835;28;20446;-84
2024/03/17 04:31:27;;;;;;;17.93;3.30;;;;;;;;;;5014876;28;20838;-81
2024/03/17 04:33:53;;;;;;;12.17;1.37;;;;;;;;;;5015229;28;20465;-84
2024/03/17 04:36:19;;;;;;;11.93;2.80;;;;;;;;;;5015296;28;20918;-80
2024/03/17 04:38:45;;;;;;;20.00;2.87;;;;;;;;;;5015229;28;20501;-81
2024/03/17 04:41:11;;;;;;;7.43;1.70;;;;;;;;;;5015123;28;20420;-81
2024/03/17 04:43:37;;;;;;;14.37;3.03;;;;;;;;;;5015120;28;20419;-81
2024/03/17 04:46:04;;;;;;;9.33;2.87;;;;;;;;;;5015101;28;20469;-83
2024/03/17 04:48:30;;;;;;;11.77;3.00;;;;;;;;;;5014703;28;20508;-82
2024/03/17 04:50:56;;;;;;;15.90;3.00;;;;;;;;;;5014892;28;20463;-81
2024/03/17 04:53:22;;;;;;;10.57;3.13;;;;;;;;;;5014538;28;20436;-83
2024/03/17 04:55:47;;;;;;;6.20;2.17;;;;;;;;;;5014724;28;20842;-83
2024/03/17 04:58:13;;;;;;;10.17;2.37;;;;;;;;;;5014939;28;20504;-81
2024/03/17 05:00:39;;;;;;;11.03;4.57;;;;;;;;;;5013569;28;20425;-82
2024/03/17 05:03:05;;;;;;;10.87;2.50;;;;;;;;;;5014436;28;20919;-83
2024/03/17 05:05:31;;;;;;;18.70;2.67;;;;;;;;;;5014690;28;20425;-81
2024/03/17 05:07:57;;;;;;;12.70;3.17;;;;;;;;;;5014730;28;20895;-81
2024/03/17 05:10:23;;;;;;;10.13;1.97;;;;;;;;;;5013793;28;20433;-81
2024/03/17 05:12:49;;;;;;;13.57;3.17;;;;;;;;;;5014643;28;20429;-81
2024/03/17 05:15:15;;;;;;;8.93;1.87;;;;;;;;;;5013266;28;20496;-81
2024/03/17 05:17:41;;;;;;;14.13;2.77;;;;;;;;;;5014146;28;20410;-83
2024/03/17 05:20:08;;;;;;;12.93;2.63;;;;;;;;;;5013299;28;20417;-82
2024/03/17 05:22:34;;;;;;;9.60;2.90;;;;;;;;;;5014350;28;20409;-81
2024/03/17 05:25:00;;;;;;;3.80;2.10;;;;;;;;;;5014370;28;20468;-82
2024/03/17 05:27:26;;;;;;;18.63;4.13;;;;;;;;;;5014282;28;20741;-82
2024/03/17 05:29:52;;;;;;;18.33;2.70;;;;;;;;;;5013129;28;20422;-82
2024/03/17 05:32:17;;;;;;;11.27;3.00;;;;;;;;;;5012708;28;20885;-83
2024/03/17 05:34:43;;;;;;;18.47;3.50;;;;;;;;;;5013965;28;20406;-80
2024/03/17 05:37:09;;;;;;;14.03;3.10;;;;;;;;;;5014059;28;20492;-81
2024/03/17 05:39:35;;;;;;;13.27;3.00;;;;;;;;;;5013597;28;20953;-82
2024/03/17 05:42:03;;;;;;;9.20;2.43;;;;;;;;;;5013774;28;20425;-83
2024/03/17 05:44:29;;;;;;;11.57;2.90;;;;;;;;;;5013103;28;20414;-81
2024/03/17 05:46:57;;;;;;;8.10;2.03;;;;;;;;;;5013975;28;20916;-83
2024/03/17 05:49:23;;;;;;;8.07;2.30;;;;;;;;;;5011698;28;20422;-81
2024/03/17 05:51:49;;;;;;;8.77;2.03;;;;;;;;;;5012918;28;20474;-82
2024/03/17 05:54:15;;;;;;;5.60;1.97;;;;;;;;;;5014135;28;20461;-82
2024/03/17 05:56:41;;;;;;;8.30;3.30;;;;;;;;;;5013225;28;20582;-85
2024/03/17 05:59:07;;;;;;;9.00;1.20;;;;;;;;;;5012735;28;20417;-82
2024/03/17 06:01:33;;;;;;;7.03;2.13;;;;;;;;;;5013671;28;20907;-82
2024/03/17 06:03:59;;;;;;;8.50;1.70;;;;;;;;;;5013875;28;20418;-84
2024/03/17 06:06:25;;;;;;;6.83;2.10;;;;;;;;;;5013897;28;20807;-86
2024/03/17 06:08:51;;;;;;;7.60;1.87;;;;;;;;;;5013938;28;20406;-84
2024/03/17 06:11:17;;;;;;;6.00;1.90;;;;;;;;;;5013701;28;20476;-83
2024/03/17 06:13:43;;;;;;;10.07;2.70;;;;;;;;;;5012748;28;20402;-83
2024/03/17 06:16:09;;;;;;;13.23;2.53;;;;;;;;;;5013539;28;20406;-82
2024/03/17 06:18:35;;;;;;;13.60;3.07;;;;;;;;;;5013681;28;20961;-80
2024/03/17 06:21:01;;;;;;;5.43;1.57;;;;;;;;;;5012407;28;20470;-83
2024/03/17 06:23:27;;;;;;;11.87;2.00;;;;;;;;;;5013620;28;20438;-82
2024/03/17 06:25:55;;;;;;;6.97;2.47;;;;;;;;;;5013625;28;20422;-82
2024/03/17 06:28:21;;;;;;;7.20;2.23;;;;;;;;;;5013626;28;20416;-82
2024/03/17 06:30:59;;;;;;;8.23;2.60;;;;;;;;;;5013384;28;20463;-84
2024/03/17 06:33:25;;;;;;;7.80;2.37;;;;;;;;;;5013224;28;20426;-82
2024/03/17 06:35:51;;;;;;;11.27;2.40;;;;;;;;;;5013488;28;20402;-85
2024/03/17 06:38:17;;;;;;;9.97;2.63;;;;;;;;;;5013554;28;20513;-83
2024/03/17 06:40:49;;;;;;;6.67;2.90;;;;;;;;;;5013434;28;20417;-83
2024/03/17 06:43:15;;;;;;;12.83;3.40;;;;;;;;;;5003572;28;20442;-85
2024/03/17 06:45:41;;;;;;;13.63;3.30;;;;;;;;;;4993353;28;20420;-82
2024/03/17 06:48:07;;;;;;;6.97;1.93;;;;;;;;;;4992936;28;20843;-85
2024/03/17 06:50:33;;;;;;;16.37;2.70;;;;;;;;;;4993206;28;20489;-85
2024/03/17 06:52:59;;;;;;;6.30;1.97;;;;;;;;;;4992947;28;20419;-85
2024/03/17 06:55:25;;;;;;;10.93;2.47;;;;;;;;;;4991694;28;20415;-86
2024/03/17 06:57:51;;;;;;;12.70;3.50;;;;;;;;;;4992307;28;20655;-83
2024/03/17 07:00:17;;;;;;;13.00;2.43;;;;;;;;;;4993762;28;20411;-83
2024/03/17 07:02:46;;;;;;;6.30;2.60;;;;;;;;;;4993227;28;20444;-84
2024/03/17 07:05:16;;;;;;;9.90;2.60;;;;;;;;;;4993520;28;20984;-83
2024/03/17 07:07:42;;;;;;;6.30;2.50;;;;;;;;;;4993503;28;20421;-84
2024/03/17 07:10:08;;;;;;;13.93;2.30;;;;;;;;;;4993619;28;20821;-83
2024/03/17 07:12:34;;;;;;;10.00;2.80;;;;;;;;;;4992245;28;20881;-83
2024/03/17 07:15:00;;;;;;;10.70;2.17;;;;;;;;;;4993520;28;20508;-83
2024/03/17 07:17:26;;;;;;;11.30;2.73;;;;;;;;;;4993144;28;20512;-83
2024/03/17 07:19:52;;;;;;;7.17;2.23;;;;;;;;;;4993511;28;20908;-83
2024/03/17 07:22:18;;;;;;;10.17;2.23;;;;;;;;;;4993447;28;20962;-83
2024/03/17 07:24:44;;;;;;;12.33;3.20;;;;;;;;;;4993263;28;20191;-85
2024/03/17 07:27:13;;;;;;;8.30;2.57;;;;;;;;;;4993326;28;20225;-84
2024/03/17 07:29:39;;;;;;;6.40;2.27;;;;;;;;;;4992473;28;20496;-84
2024/03/17 07:32:05;;;;;;;8.53;2.40;;;;;;;;;;5009217;28;20557;-83
2024/03/17 07:34:32;;;;;;;14.27;3.37;;;;;;;;;;4992851;28;20441;-84
2024/03/17 07:37:00;;;;;;;8.20;2.20;;;;;;;;;;4992777;28;20452;-83
2024/03/17 07:39:28;;;;;;;4.97;2.07;;;;;;;;;;4992946;28;20416;-82
2024/03/17 07:41:54;;;;;;;5.20;2.13;;;;;;;;;;4992867;28;20427;-83
2024/03/17 07:44:20;;;;;;;7.43;2.10;;;;;;;;;;4992943;28;20475;-84
2024/03/17 07:46:46;;;;;;;8.60;2.50;;;;;;;;;;4992533;28;20512;-85
2024/03/17 07:49:12;;;;;;;5.40;2.30;;;;;;;;;;4992625;28;20196;-83
2024/03/17 07:51:38;;;;;;;10.27;2.47;;;;;;;;;;4992876;28;20213;-83
2024/03/17 07:54:04;;;;;;;4.67;1.30;;;;;;;;;;4991594;28;20190;-84
2024/03/17 07:56:30;;;;;;;6.20;1.90;;;;;;;;;;4991502;28;20238;-84
2024/03/17 07:58:56;;;;;;;9.60;1.97;;;;;;;;;;5032625;23;20276;-87
2024/03/17 08:01:22;;;;;;;5.53;1.40;;;;;;;;;;5011926;28;20456;-85
2024/03/17 08:03:53;;;;;;;7.73;1.07;;;;;;;;;;5013258;28;20441;-83
2024/03/17 08:06:20;;;;;;;4.53;1.67;;;;;;;;;;5015590;28;20984;-84
2024/03/17 08:08:46;;;;;;;7.57;2.03;;;;;;;;;;5015700;28;20487;-84
2024/03/17 08:11:13;;;;;;;8.10;1.63;;;;;;;;;;5015522;28;20461;-84
2024/03/17 08:13:39;;;;;;;5.00;1.97;;;;;;;;;;5014214;28;20182;-84
2024/03/17 08:16:06;;;;;;;5.93;1.13;;;;;;;;;;5014709;28;20741;-85
2024/03/17 08:18:32;;;;;;;5.97;1.63;;;;;;;;;;5000589;28;20427;-87
2024/03/17 08:21:00;;;;;;;9.03;1.93;;;;;;;;;;4995661;28;20945;-85
2024/03/17 08:23:25;;;;;;;7.63;1.30;;;;;;;;;;4995964;28;20807;-84
2024/03/17 08:25:55;;;;;;;7.60;1.47;;;;;;;;;;4995637;28;20465;-87
2024/03/17 08:28:21;;;;;;;5.57;1.60;;;;;;;;;;4995676;28;20859;-83
2024/03/17 08:30:57;;;;;;;7.93;1.60;;;;;;;;;;4995688;28;20458;-84
2024/03/17 08:33:23;;;;;;;5.30;0.93;;;;;;;;;;4996014;28;20452;-83
2024/03/17 08:35:53;;;;;;;4.53;1.40;;;;;;;;;;4995998;28;20943;-84
2024/03/17 08:38:20;;;;;;;7.63;1.20;;;;;;;;;;4994716;28;20935;-83
2024/03/17 08:40:46;;;;;;;6.87;1.30;;;;;;;;;;4994888;28;20850;-83
2024/03/17 08:43:11;;;;;;;6.03;1.17;;;;;;;;;;4994408;28;20427;-84
2024/03/17 08:45:37;;;;;;;9.23;0.93;;;;;;;;;;4995873;28;20222;-84
2024/03/17 08:48:03;;;;;;;5.67;1.17;;;;;;;;;;4995479;28;20175;-83
2024/03/17 08:50:33;;;;;;;8.13;1.60;;;;;;;;;;4995553;28;20172;-84
2024/03/17 08:52:58;;;;;;;6.90;1.20;;;;;;;;;;5011745;28;20773;-83
2024/03/17 08:55:24;;;;;;;3.77;0.77;;;;;;;;;;5014916;28;20401;-84
2024/03/17 08:57:50;;;;;;;6.07;1.00;;;;;;;;;;5014901;28;20234;-83
2024/03/17 09:00:16;;;;;;;4.80;1.33;;;;;;;;;;5015457;28;20250;-83
2024/03/17 09:02:42;;;;;;;8.00;0.87;;;;;;;;;;5015160;28;20174;-83
2024/03/17 09:05:08;;;;;;;4.33;0.73;;;;;;;;;;5015319;28;20767;-84
2024/03/17 09:07:34;;;;;;;7.00;0.63;;;;;;;;;;5015166;28;20464;-84
2024/03/17 09:10:00;;;;;;;7.97;0.80;;;;;;;;;;5014066;28;20881;-86
2024/03/17 09:12:29;;;;;;;6.07;1.30;;;;;;;;;;5015001;28;20807;-85
2024/03/17 09:14:55;;;;;;;3.37;0.60;;;;;;;;;;5009185;28;20433;-83
2024/03/17 09:17:21;;;;;;;7.87;0.80;;;;;;;;;;5006623;28;20766;-85
2024/03/17 09:19:47;;;;;;;4.00;0.63;;;;;;;;;;5015138;28;20414;-86
2024/03/17 09:22:13;;;;;;;3.67;1.10;;;;;;;;;;5014411;28;21421;-84
2024/03/17 09:24:40;;;;;;;3.90;1.13;;;;;;;;;;5014141;28;20441;-86
2024/03/17 09:27:06;;;;;;;2.60;1.00;;;;;;;;;;5014653;28;20767;-85
2024/03/17 09:29:33;;;;;;;5.13;0.70;;;;;;;;;;5014646;28;20414;-84
2024/03/17 09:32:01;;;;;;;8.57;1.13;;;;;;;;;;5010918;28;20523;-87
2024/03/17 09:34:30;;;;;;;3.23;0.73;;;;;;;;;;5012856;28;20407;-86
2024/03/17 09:36:56;;;;;;;4.60;0.90;;;;;;;;;;5014362;28;20426;-85
2024/03/17 09:39:43;;;;;;;6.33;1.23;;;;;;;;;;5014098;28;20911;-85
2024/03/17 09:42:17;;;;;;;4.57;0.87;;;;;;;;;;5014164;28;20422;-84
2024/03/17 09:44:47;;;;;;;5.40;0.63;;;;;;;;;;5016401;28;20433;-87
2024/03/17 09:47:19;;;;;;;6.23;1.33;;;;;;;;;;5013475;28;20415;-85
2024/03/17 09:49:46;;;;;;;5.40;0.60;;;;;;;;;;5010690;28;20420;-85
2024/03/17 09:52:20;;;;;;;6.07;0.93;;;;;;;;;;5014347;28;20480;-88
2024/03/17 09:54:49;;;;;;;3.97;0.60;;;;;;;;;;5013523;28;20976;-88
2024/03/17 09:57:17;;;;;;;4.40;0.90;;;;;;;;;;5014738;28;20491;-86
2024/03/17 09:59:43;;;;;;;5.27;0.97;;;;;;;;;;5014862;28;20461;-85
2024/03/17 10:02:18;;;;;;;5.57;1.20;;;;;;;;;;5012858;28;20440;-85
2024/03/17 10:04:45;;;;;;;3.97;0.57;;;;;;;;;;5016268;28;20424;-88
2024/03/17 10:07:11;;;;;;;5.80;1.10;;;;;;;;;;5019811;28;20413;-89
2024/03/17 10:09:38;;;;;;;5.97;1.50;;;;;;;;;;5021070;28;20488;-88
2024/03/17 10:12:05;;;;;;;4.50;1.10;;;;;;;;;;5014848;28;20475;-89
2024/03/17 10:14:32;;;;;;;6.40;0.60;;;;;;;;;;5018769;28;20422;-89
2024/03/17 10:16:58;;;;;;;7.20;1.00;;;;;;;;;;5017576;28;20418;-86
2024/03/17 10:19:26;;;;;;;8.10;1.70;;;;;;;;;;5018677;28;20445;-84
2024/03/17 10:22:00;;;;;;;2.57;0.97;;;;;;;;;;5016215;28;20417;-84
2024/03/17 10:24:28;;;;;;;6.87;1.17;;;;;;;;;;5012124;28;20434;-87
2024/03/17 10:26:55;;;;;;;9.60;1.17;;;;;;;;;;5012878;28;20429;-88
2024/03/17 10:29:22;;;;;;;7.73;1.20;;;;;;;;;;5014352;28;20417;-87
2024/03/17 10:31:48;;;;;;;7.07;1.30;;;;;;;;;;5014688;28;20481;-86
2024/03/17 10:34:18;;;;;;;6.50;1.07;;;;;;;;;;5009900;28;20463;-86
2024/03/17 10:36:44;;;;;;;6.07;1.40;;;;;;;;;;5011748;28;20445;-86
2024/03/17 10:39:30;;;;;;;4.33;0.57;;;;;;;;;;5013046;28;20410;-86
2024/03/17 10:41:58;;;;;;;5.13;0.87;;;;;;;;;;5013533;28;20414;-84
2024/03/17 10:44:24;;;;;;;6.10;1.00;;;;;;;;;;5012897;28;20413;-84
2024/03/17 10:46:52;;;;;;;4.43;0.50;;;;;;;;;;5012611;28;20430;-87
2024/03/17 10:49:18;;;;;;;5.37;0.53;;;;;;;;;;5013400;28;20410;-87
2024/03/17 10:51:47;;;;;;;4.13;0.60;;;;;;;;;;5013239;28;21018;-86
2024/03/17 10:54:20;;;;;;;4.33;0.80;;;;;;;;;;5013368;28;20956;-87
2024/03/17 10:56:46;;;;;;;6.23;1.00;;;;;;;;;;5013139;28;20406;-86
2024/03/17 10:59:13;;;;;;;4.50;0.90;;;;;;;;;;5013112;28;20461;-87
2024/03/17 11:01:40;;;;;;;3.50;1.07;;;;;;;;;;5009978;28;21080;-86
2024/03/17 11:04:06;;;;;;;6.17;0.87;;;;;;;;;;5000473;28;20441;-86
2024/03/17 11:06:32;;;;;;;5.50;1.13;;;;;;;;;;4998205;28;20572;-86
2024/03/17 11:08:59;;;;;;;6.33;1.30;;;;;;;;;;5001046;28;20179;-86
2024/03/17 11:11:36;;;;;;;7.23;1.73;;;;;;;;;;4999504;28;20480;-86
2024/03/17 11:14:20;;;;;;;2.90;0.80;;;;;;;;;;5000699;28;20446;-86
2024/03/17 11:16:47;;;;;;;3.30;1.30;;;;;;;;;;5000298;28;20426;-86
2024/03/17 11:19:16;;;;;;;5.80;1.03;;;;;;;;;;4999751;28;20485;-87
2024/03/17 11:21:42;;;;;;;5.80;1.50;;;;;;;;;;5063106;23;20493;-84
2024/03/17 11:24:18;;;;;;;7.47;1.17;;;;;;;;;;4997892;28;20435;-87
2024/03/17 11:26:44;;;;;;;7.13;1.27;;;;;;;;;;4993332;28;20781;-88
2024/03/17 11:29:27;;;;;;;7.60;1.73;;;;;;;;;;4992059;28;20423;-84
2024/03/17 11:31:55;;;;;;;3.80;0.93;;;;;;;;;;4991674;28;20219;-85
2024/03/17 11:34:28;;;;;;;3.17;1.10;;;;;;;;;;4993347;28;20422;-87
2024/03/17 11:36:54;;;;;;;4.27;0.77;;;;;;;;;;4992677;28;20426;-85
2024/03/17 11:39:25;;;;;;;5.17;1.10;;;;;;;;;;4995308;28;20422;-87
2024/03/17 11:41:51;;;;;;;7.63;1.00;;;;;;;;;;4995783;28;20438;-86
2024/03/17 11:44:21;;;;;;;6.13;1.10;;;;;;;;;;4996864;28;20413;-87
2024/03/17 11:46:59;;;;;;;5.10;1.03;;;;;;;;;;4996524;28;20422;-86
2024/03/17 11:49:27;;;;;;;7.83;0.90;;;;;;;;;;4996944;28;20937;-86
2024/03/17 11:51:57;;;;;;;3.63;0.80;;;;;;;;;;4996765;28;20466;-85
2024/03/17 11:54:39;;;;;;;3.23;1.10;;;;;;;;;;4994104;28;20779;-88
2024/03/17 11:57:10;;;;;;;7.30;1.03;;;;;;;;;;4996876;28;20887;-88
2024/03/17 11:59:37;;;;;;;3.40;0.60;;;;;;;;;;4996699;28;20433;-86
2024/03/17 12:02:10;;;;;;;5.70;0.87;;;;;;;;;;4996498;28;20402;-86
2024/03/17 12:04:39;;;;;;;5.50;0.77;;;;;;;;;;4996685;28;20433;-86
2024/03/17 12:07:11;;;;;;;3.90;0.80;;;;;;;;;;4995392;28;20433;-87
2024/03/17 12:09:37;;;;;;;5.93;0.97;;;;;;;;;;4996638;28;20817;-86
2024/03/17 12:12:03;;;;;;;8.20;1.47;;;;;;;;;;4995137;28;20986;-87
2024/03/17 12:14:30;;;;;;;7.50;1.37;;;;;;;;;;4996419;28;20414;-84
2024/03/17 12:16:56;;;;;;;4.50;1.10;;;;;;;;;;4994809;28;20437;-85
2024/03/17 12:19:23;;;;;;;6.83;1.10;;;;;;;;;;4996337;28;20431;-85
2024/03/17 12:21:50;;;;;;;3.80;0.77;;;;;;;;;;4996072;28;20943;-84
2024/03/17 12:24:20;;;;;;;4.63;1.17;;;;;;;;;;4996267;28;20439;-85
2024/03/17 12:26:49;;;;;;;3.33;0.50;;;;;;;;;;4996177;28;20449;-85
2024/03/17 12:29:27;;;;;;;4.80;1.37;;;;;;;;;;4996151;28;20407;-85
2024/03/17 12:31:53;;;;;;;4.30;1.20;;;;;;;;;;4995648;28;20482;-84
2024/03/17 12:34:22;;;;;;;5.47;1.07;;;;;;;;;;4996079;28;20930;-85
2024/03/17 12:36:49;;;;;;;4.83;1.17;;;;;;;;;;4996050;28;20924;-86
2024/03/17 12:39:19;;;;;;;5.27;0.93;;;;;;;;;;4995966;28;20495;-86
2024/03/17 12:41:46;;;;;;;3.93;0.70;;;;;;;;;;4995905;28;20422;-85
2024/03/17 12:44:24;;;;;;;7.60;1.53;;;;;;;;;;4995794;28;20419;-85
2024/03/17 12:46:57;;;;;;;4.10;0.60;;;;;;;;;;4995552;28;20413;-86
2024/03/17 12:49:25;;;;;;;6.53;1.30;;;;;;;;;;4995459;28;20800;-85
2024/03/17 12:51:51;;;;;;;4.17;1.03;;;;;;;;;;4995670;28;20474;-85
2024/03/17 12:54:19;;;;;;;3.70;0.73;;;;;;;;;;4995613;28;20414;-86
2024/03/17 13:00:31;;;;;;;5.33;0.90;;;;;;;;;;4995637;28;20569;-86
2024/03/17 13:02:42;;;;;;;4.40;0.60;;;;;;;;;;4995462;28;20907;-86
2024/03/17 13:05:11;;;;;;;6.03;1.23;;;;;;;;;;4995458;28;20422;-86
2024/03/17 13:07:37;;;;;;;7.20;1.23;;;;;;;;;;4995517;28;20760;-86
2024/03/17 13:10:03;;;;;;;7.03;1.00;;;;;;;;;;4995574;28;20415;-85
2024/03/17 13:12:29;;;;;;;5.97;1.10;;;;;;;;;;4995213;28;20223;-86
2024/03/17 13:14:55;;;;;;;6.27;0.90;;;;;;;;;;4993905;28;20845;-85
2024/03/17 13:17:22;;;;;;;4.77;1.03;;;;;;;;;;4995059;28;20176;-85
2024/03/17 13:19:48;;;;;;;5.70;1.13;;;;;;;;;;4993996;28;20172;-86
2024/03/17 13:22:14;;;;;;;4.80;0.77;;;;;;;;;;4993806;28;20569;-85
2024/03/17 13:24:40;;;;;;;5.63;0.93;;;;;;;;;;4995120;28;20409;-85
2024/03/17 13:27:08;;;;;;;3.57;0.67;;;;;;;;;;4995099;28;20406;-86
2024/03/17 13:29:35;;;;;;;5.80;1.10;;;;;;;;;;4995099;28;20411;-85
2024/03/17 13:32:03;;;;;;;7.90;0.90;;;;;;;;;;4994470;28;20487;-85
2024/03/17 13:34:29;;;;;;;4.40;0.90;;;;;;;;;;4994994;28;20433;-84
2024/03/17 13:36:55;;;;;;;5.70;1.10;;;;;;;;;;4994914;28;20422;-85
2024/03/17 13:39:22;;;;;;;3.93;1.03;;;;;;;;;;4994895;28;20470;-84
2024/03/17 13:41:49;;;;;;;8.70;1.63;;;;;;;;;;4994886;28;20412;-84
2024/03/17 13:44:15;;;;;;;5.63;1.30;;;;;;;;;;4994795;28;20505;-83
2024/03/17 13:46:41;;;;;;;5.00;1.03;;;;;;;;;;4994627;28;20824;-85
2024/03/17 13:49:08;;;;;;;4.63;0.90;;;;;;;;;;4994697;28;20414;-85
2024/03/17 13:51:34;;;;;;;4.87;0.70;;;;;;;;;;4993299;28;20815;-85
2024/03/17 13:54:00;;;;;;;3.50;0.60;;;;;;;;;;4994591;28;20561;-85
2024/03/17 13:56:26;;;;;;;4.47;0.80;;;;;;;;;;4994536;28;20448;-85
2024/03/17 13:58:53;;;;;;;6.57;1.30;;;;;;;;;;4994526;28;20423;-85
2024/03/17 14:01:19;;;;;;;5.13;1.00;;;;;;;;;;4992095;28;20425;-84
2024/03/17 14:03:45;;;;;;;4.47;1.40;;;;;;;;;;4994410;28;20412;-85
2024/03/17 14:06:11;;;;;;;4.13;0.60;;;;;;;;;;4995514;28;20415;-85
2024/03/17 14:08:37;;;;;;;5.77;0.60;;;;;;;;;;4994555;28;20641;-84
2024/03/17 14:11:06;;;;;;;4.10;0.40;;;;;;;;;;4994239;28;20551;-85
2024/03/17 14:13:32;;;;;;;3.23;0.77;;;;;;;;;;4994228;28;20461;-85
2024/03/17 14:15:58;;;;;;;6.60;0.90;;;;;;;;;;4993942;28;20441;-85
2024/03/17 14:18:24;;;;;;;8.13;1.20;;;;;;;;;;4994159;28;20687;-85
2024/03/17 14:20:50;;;;;;;6.17;1.17;;;;;;;;;;4994159;28;20939;-85
2024/03/17 14:23:17;;;;;;;2.80;1.57;;;;;;;;;;4993995;28;20476;-85
2024/03/17 14:25:43;;;;;;;5.03;0.40;;;;;;;;;;4994076;28;20642;-84
2024/03/17 14:28:09;;;;;;;2.67;0.60;;;;;;;;;;4994039;28;20417;-85
2024/03/17 14:30:35;;;;;;;4.80;0.93;;;;;;;;;;4993573;28;20173;-85
2024/03/17 14:33:04;;;;;;;6.20;1.00;;;;;;;;;;4993983;28;20780;-84
2024/03/17 14:35:30;;;;;;;6.20;0.70;;;;;;;;;;4993945;28;20415;-86
2024/03/17 14:37:58;;;;;;;4.63;0.57;;;;;;;;;;4993847;28;20929;-85
2024/03/17 14:40:24;;;;;;;4.47;0.80;;;;;;;;;;4992677;28;20512;-85
2024/03/17 14:42:50;;;;;;;4.43;0.40;;;;;;;;;;4992603;28;20531;-85
2024/03/17 14:45:19;;;;;;;3.43;0.70;;;;;;;;;;4993880;28;20415;-84